createdAt,value
2022-12-09T00:01:10.433Z,32.33
2022-12-09T00:03:39.180Z,33.17
2022-12-09T00:06:08.514Z,33.93
2022-12-09T00:08:36.755Z,32.83
2022-12-09T00:11:05.100Z,34.70
2022-12-09T00:13:32.746Z,33.63
2022-12-09T00:16:05.893Z,33.20
2022-12-09T00:18:34.003Z,33.93
2022-12-09T00:21:12.535Z,32.97
2022-12-09T00:23:40.322Z,34.73
2022-12-09T00:26:08.422Z,34.03
2022-12-09T00:28:36.271Z,34.30
2022-12-09T00:31:06.225Z,33.10
2022-12-09T00:33:35.611Z,33.50
2022-12-09T00:36:08.315Z,33.53
2022-12-09T00:38:36.277Z,33.40
2022-12-09T00:41:05.593Z,34.90
2022-12-09T00:43:33.539Z,33.73
2022-12-09T00:46:01.529Z,35.17
2022-12-09T00:48:30.980Z,33.10
2022-12-09T00:50:58.900Z,33.47
2022-12-09T00:53:26.875Z,32.10
2022-12-09T00:55:54.583Z,33.20
2022-12-09T00:58:22.411Z,33.60
2022-12-09T01:00:50.100Z,32.67
2022-12-09T01:03:19.365Z,32.87
2022-12-09T01:05:48.898Z,32.20
2022-12-09T01:08:16.658Z,33.17
2022-12-09T01:10:45.891Z,34.00
2022-12-09T01:13:15.847Z,32.50
2022-12-09T01:15:44.550Z,35.07
2022-12-09T01:18:13.114Z,35.17
2022-12-09T01:20:40.946Z,35.23
2022-12-09T01:23:09.956Z,34.00
2022-12-09T01:25:38.936Z,35.67
2022-12-09T01:28:06.737Z,36.47
2022-12-09T01:30:34.394Z,34.90
2022-12-09T01:33:02.155Z,35.87
2022-12-09T01:35:30.020Z,37.00
2022-12-09T01:37:57.917Z,35.03
2022-12-09T01:40:26.985Z,34.77
2022-12-09T01:42:54.829Z,34.30
2022-12-09T01:45:49.722Z,35.03
2022-12-09T01:48:20.412Z,35.83
2022-12-09T01:50:52.327Z,34.57
2022-12-09T01:53:22.691Z,35.90
2022-12-09T01:55:51.821Z,35.50
2022-12-09T01:58:20.065Z,34.00
2022-12-09T02:00:48.189Z,35.40
2022-12-09T02:03:16.439Z,35.37
2022-12-09T02:05:44.960Z,38.70
2022-12-09T02:08:14.527Z,36.77
2022-12-09T02:10:49.624Z,40.00
2022-12-09T02:13:27.416Z,40.17
2022-12-09T02:15:58.365Z,40.40
2022-12-09T02:18:30.347Z,41.57
2022-12-09T02:21:02.590Z,39.90
2022-12-09T02:23:38.365Z,40.20
2022-12-09T02:26:14.482Z,38.40
2022-12-09T02:29:13.083Z,40.33
2022-12-09T02:32:20.021Z,39.73
2022-12-09T02:34:55.881Z,41.03
2022-12-09T02:37:30.232Z,42.87
2022-12-09T02:40:03.287Z,42.03
2022-12-09T02:42:35.197Z,44.50
2022-12-09T02:45:05.776Z,46.07
2022-12-09T02:47:37.554Z,43.07
2022-12-09T02:50:11.320Z,46.40
2022-12-09T02:52:40.943Z,43.60
2022-12-09T02:55:11.282Z,41.80
2022-12-09T02:57:40.075Z,41.60
2022-12-09T03:00:09.511Z,39.50
2022-12-09T03:02:42.036Z,38.80
2022-12-09T03:05:17.993Z,40.23
2022-12-09T03:07:55.889Z,41.50
2022-12-09T03:10:28.412Z,43.97
2022-12-09T03:13:02.062Z,43.90
2022-12-09T03:15:34.027Z,41.40
2022-12-09T03:18:05.707Z,43.90
2022-12-09T03:20:40.298Z,39.50
2022-12-09T03:23:12.651Z,39.47
2022-12-09T03:25:43.719Z,39.27
2022-12-09T03:28:17.923Z,39.50
2022-12-09T03:30:46.999Z,39.60
2022-12-09T03:33:19.660Z,38.00
2022-12-09T03:35:53.018Z,39.97
2022-12-09T03:38:23.452Z,39.60
2022-12-09T03:40:59.422Z,42.40
2022-12-09T03:43:30.481Z,42.63
2022-12-09T03:45:59.247Z,40.43
2022-12-09T03:48:27.459Z,41.67
2022-12-09T03:51:00.642Z,41.43
2022-12-09T03:53:36.171Z,42.93
2022-12-09T03:56:09.153Z,39.67
2022-12-09T03:58:41.807Z,39.43
2022-12-09T04:01:10.462Z,40.77
2022-12-09T04:03:39.659Z,38.00
2022-12-09T04:06:09.521Z,39.50
2022-12-09T04:08:37.269Z,42.50
2022-12-09T04:11:05.056Z,41.83
2022-12-09T04:13:33.154Z,45.70
2022-12-09T04:16:00.758Z,48.00
2022-12-09T04:18:28.851Z,46.63
2022-12-09T04:20:56.978Z,45.70
2022-12-09T04:23:26.148Z,45.83
2022-12-09T04:25:53.813Z,50.27
2022-12-09T04:28:21.656Z,45.67
2022-12-09T04:30:49.771Z,51.87
2022-12-09T04:33:17.374Z,48.40
2022-12-09T04:35:45.049Z,47.40
2022-12-09T04:38:12.727Z,44.93
2022-12-09T04:40:41.680Z,46.83
2022-12-09T04:43:09.473Z,46.30
2022-12-09T04:45:38.476Z,44.53
2022-12-09T04:48:06.822Z,47.03
2022-12-09T04:50:34.643Z,42.90
2022-12-09T04:53:02.382Z,43.63
2022-12-09T04:55:30.227Z,44.70
2022-12-09T04:57:59.515Z,44.53
2022-12-09T05:00:28.021Z,47.97
2022-12-09T05:02:56.124Z,46.10
2022-12-09T05:05:24.291Z,47.70
2022-12-09T05:07:52.425Z,45.63
2022-12-09T05:10:20.326Z,45.17
2022-12-09T05:12:48.611Z,44.60
2022-12-09T05:15:17.947Z,44.83
2022-12-09T05:17:46.103Z,43.70
2022-12-09T05:20:14.733Z,45.40
2022-12-09T05:22:42.908Z,42.77
2022-12-09T05:25:11.472Z,41.80
2022-12-09T05:27:39.450Z,43.30
2022-12-09T05:30:08.776Z,41.43
2022-12-09T05:32:38.502Z,42.33
2022-12-09T05:35:06.967Z,45.00
2022-12-09T05:37:35.066Z,46.13
2022-12-09T05:40:03.056Z,44.93
2022-12-09T05:42:32.054Z,44.10
2022-12-09T05:45:03.022Z,45.97
2022-12-09T05:47:30.858Z,42.83
2022-12-09T05:50:04.491Z,43.80
2022-12-09T05:52:36.447Z,42.30
2022-12-09T05:55:05.376Z,42.90
2022-12-09T05:57:35.792Z,44.53
2022-12-09T06:00:06.607Z,44.50
2022-12-09T06:02:34.997Z,42.03
2022-12-09T06:05:04.514Z,41.90
2022-12-09T06:07:33.205Z,43.40
2022-12-09T06:10:01.264Z,40.93
2022-12-09T06:12:29.278Z,41.80
2022-12-09T06:14:57.244Z,43.07
2022-12-09T06:17:24.998Z,40.07
2022-12-09T06:19:52.789Z,38.90
2022-12-09T06:22:21.896Z,41.73
2022-12-09T06:24:54.062Z,42.23
2022-12-09T06:27:24.650Z,41.17
2022-12-09T06:29:52.382Z,41.27
2022-12-09T06:32:20.313Z,42.50
2022-12-09T06:34:48.169Z,41.77
2022-12-09T06:37:16.619Z,42.30
2022-12-09T06:39:45.624Z,45.03
2022-12-09T06:42:13.784Z,42.03
2022-12-09T06:44:41.570Z,40.23
2022-12-09T06:47:09.347Z,42.67
2022-12-09T06:49:37.632Z,43.37
2022-12-09T06:52:05.805Z,41.60
2022-12-09T06:54:33.510Z,40.40
2022-12-09T06:57:02.581Z,41.40
2022-12-09T06:59:30.541Z,41.93
2022-12-09T07:01:58.753Z,42.50
2022-12-09T07:04:27.007Z,40.27
2022-12-09T07:06:55.205Z,40.03
2022-12-09T07:09:23.761Z,41.17
2022-12-09T07:11:51.576Z,41.90
2022-12-09T07:14:21.474Z,40.67
2022-12-09T07:16:49.353Z,41.77
2022-12-09T07:19:19.100Z,41.17
2022-12-09T07:21:47.903Z,41.60
2022-12-09T07:24:16.136Z,38.70
2022-12-09T07:26:44.043Z,40.47
2022-12-09T07:29:11.699Z,41.07
2022-12-09T07:31:40.789Z,41.60
2022-12-09T07:34:09.311Z,40.73
2022-12-09T07:36:38.000Z,38.40
2022-12-09T07:39:07.724Z,39.40
2022-12-09T07:41:35.989Z,40.10
2022-12-09T07:44:04.187Z,40.40
2022-12-09T07:46:32.339Z,40.03
2022-12-09T07:49:03.060Z,40.87
2022-12-09T07:51:31.457Z,39.80
2022-12-09T07:53:59.558Z,39.80
2022-12-09T07:56:28.656Z,40.50
2022-12-09T07:58:58.107Z,40.83
2022-12-09T08:01:28.385Z,39.70
2022-12-09T08:03:58.071Z,38.77
2022-12-09T08:06:29.485Z,39.37
2022-12-09T08:08:59.532Z,39.70
2022-12-09T08:11:29.455Z,40.53
2022-12-09T08:13:58.482Z,37.37
2022-12-09T08:16:27.545Z,38.60
2022-12-09T08:18:56.410Z,37.77
2022-12-09T08:21:26.299Z,38.97
2022-12-09T08:23:56.788Z,37.20
2022-12-09T08:26:27.124Z,37.43
2022-12-09T08:28:55.059Z,37.00
2022-12-09T08:31:25.572Z,37.77
2022-12-09T08:33:54.353Z,38.73
2022-12-09T08:36:24.758Z,39.43
2022-12-09T08:38:53.178Z,38.23
2022-12-09T08:41:35.392Z,36.73
2022-12-09T08:44:05.458Z,37.10
2022-12-09T08:46:34.658Z,38.70
2022-12-09T08:49:02.728Z,37.63
2022-12-09T08:51:31.865Z,38.00
2022-12-09T08:54:00.627Z,37.50
2022-12-09T08:56:29.966Z,36.47
2022-12-09T08:58:58.088Z,37.27
2022-12-09T09:01:32.308Z,38.37
2022-12-09T09:04:02.771Z,37.60
2022-12-09T09:06:31.249Z,37.90
2022-12-09T09:08:59.553Z,37.30
2022-12-09T09:11:29.638Z,37.47
2022-12-09T09:13:57.818Z,37.00
2022-12-09T09:16:27.433Z,37.30
2022-12-09T09:18:55.370Z,39.07
2022-12-09T09:21:26.853Z,39.00
2022-12-09T09:23:55.034Z,38.47
2022-12-09T09:26:25.965Z,36.70
2022-12-09T09:28:56.474Z,37.17
2022-12-09T09:31:25.992Z,38.20
2022-12-09T09:33:54.445Z,36.70
2022-12-09T09:36:24.887Z,38.47
2022-12-09T09:38:54.976Z,38.70
2022-12-09T09:41:29.463Z,37.93
2022-12-09T09:43:59.083Z,38.33
2022-12-09T09:46:36.350Z,37.67
2022-12-09T09:49:06.850Z,37.20
2022-12-09T09:51:36.581Z,37.83
2022-12-09T09:54:08.653Z,36.73
2022-12-09T09:56:43.824Z,37.80
2022-12-09T09:59:21.619Z,36.67
2022-12-09T10:02:01.201Z,35.43
2022-12-09T10:04:37.727Z,37.80
2022-12-09T10:07:19.918Z,37.30
2022-12-09T10:09:55.676Z,37.17
2022-12-09T10:12:32.027Z,36.30
2022-12-09T10:15:10.656Z,35.20
2022-12-09T10:17:45.919Z,36.47
2022-12-09T10:20:17.577Z,35.83
2022-12-09T10:22:51.607Z,37.03
2022-12-09T10:25:24.006Z,36.20
2022-12-09T10:27:58.195Z,38.50
2022-12-09T10:30:34.187Z,35.83
2022-12-09T10:33:05.583Z,37.17
2022-12-09T10:35:34.718Z,39.10
2022-12-09T10:38:09.019Z,37.03
2022-12-09T10:40:47.441Z,38.47
2022-12-09T10:43:35.584Z,38.43
2022-12-09T10:46:18.040Z,38.10
2022-12-09T10:48:54.092Z,40.40
2022-12-09T10:51:23.873Z,39.43
2022-12-09T10:53:55.970Z,41.10
2022-12-09T10:56:26.810Z,41.47
2022-12-09T10:59:10.617Z,40.33
2022-12-09T11:01:52.598Z,41.93
2022-12-09T11:04:26.412Z,41.63
2022-12-09T11:06:59.709Z,39.47
2022-12-09T11:09:30.769Z,39.17
2022-12-09T11:12:00.042Z,39.70
2022-12-09T11:14:32.971Z,39.60
2022-12-09T11:17:18.739Z,41.23
2022-12-09T11:19:51.497Z,40.07
2022-12-09T11:22:29.311Z,41.20
2022-12-09T11:25:16.808Z,38.63
2022-12-09T11:27:50.898Z,40.33
2022-12-09T11:30:20.770Z,40.97
2022-12-09T11:33:19.591Z,39.07
2022-12-09T11:35:59.064Z,39.77
2022-12-09T11:38:34.243Z,40.00
2022-12-09T11:41:14.007Z,39.23
2022-12-09T11:43:47.011Z,40.60
2022-12-09T11:46:22.493Z,39.13
2022-12-09T11:48:56.355Z,42.20
2022-12-09T11:51:26.840Z,40.00
2022-12-09T11:54:03.311Z,39.87
2022-12-09T11:56:31.428Z,39.97
2022-12-09T11:59:03.167Z,39.40
2022-12-09T12:01:39.242Z,38.43
2022-12-09T12:04:11.774Z,39.20
2022-12-09T12:06:46.594Z,39.60
2022-12-09T12:09:21.422Z,38.50
2022-12-09T12:11:58.481Z,39.10
2022-12-09T12:14:30.133Z,38.87
2022-12-09T12:17:03.490Z,38.20
2022-12-09T12:19:35.574Z,39.40
2022-12-09T12:22:26.092Z,37.83
2022-12-09T12:25:17.080Z,38.00
2022-12-09T12:28:02.044Z,40.53
2022-12-09T12:30:39.067Z,40.20
2022-12-09T12:34:00.336Z,40.53
2022-12-09T12:36:30.031Z,39.70
2022-12-09T12:39:07.326Z,40.60
2022-12-09T12:41:42.667Z,40.90
2022-12-09T12:44:41.272Z,39.33
2022-12-09T12:47:18.868Z,40.73
2022-12-09T12:50:04.078Z,41.83
2022-12-09T12:52:59.536Z,40.10
2022-12-09T12:55:49.268Z,39.20
2022-12-09T12:58:29.503Z,38.90
2022-12-09T13:01:08.898Z,37.93
2022-12-09T13:03:44.571Z,40.70
2022-12-09T13:06:17.173Z,39.00
2022-12-09T13:08:51.685Z,38.97
2022-12-09T13:11:23.175Z,37.23
2022-12-09T13:13:55.564Z,37.03
2022-12-09T13:16:28.565Z,40.27
2022-12-09T13:19:03.523Z,39.23
2022-12-09T13:21:31.192Z,40.37
2022-12-09T13:24:08.575Z,38.37
2022-12-09T13:26:44.127Z,37.67
2022-12-09T13:29:29.938Z,38.10
2022-12-09T13:32:05.063Z,38.27
2022-12-09T13:34:38.415Z,37.17
2022-12-09T13:37:08.231Z,37.83
2022-12-09T13:39:58.158Z,37.33
2022-12-09T13:42:57.141Z,38.00
2022-12-09T13:45:29.162Z,36.70
2022-12-09T13:47:58.171Z,36.70
2022-12-09T13:50:28.874Z,39.07
2022-12-09T13:52:58.720Z,39.50
2022-12-09T13:55:34.778Z,39.17
2022-12-09T13:58:27.125Z,38.20
2022-12-09T14:01:17.078Z,37.23
2022-12-09T14:03:53.846Z,42.10
2022-12-09T14:06:26.043Z,40.43
2022-12-09T14:08:58.624Z,39.67
2022-12-09T14:11:47.328Z,40.13
2022-12-09T14:14:57.668Z,38.27
2022-12-09T14:18:02.793Z,39.33
2022-12-09T14:20:34.167Z,39.63
2022-12-09T14:23:19.647Z,38.97
2022-12-09T14:26:04.471Z,38.70
2022-12-09T14:29:00.770Z,37.50
2022-12-09T14:31:46.003Z,45.00
2022-12-09T14:34:27.948Z,40.50
2022-12-09T14:37:03.254Z,39.13
2022-12-09T14:39:37.153Z,40.00
2022-12-09T14:42:10.531Z,39.50
2022-12-09T14:44:46.963Z,39.20
2022-12-09T14:47:19.482Z,41.90
2022-12-09T14:49:49.508Z,42.00
2022-12-09T14:52:23.240Z,43.13
2022-12-09T14:54:52.286Z,46.60
2022-12-09T14:57:23.918Z,43.13
2022-12-09T14:59:54.932Z,43.27
2022-12-09T15:02:24.523Z,43.63
2022-12-09T15:04:53.597Z,44.40
2022-12-09T15:07:23.193Z,41.70
2022-12-09T15:09:56.466Z,48.40
2022-12-09T15:12:27.799Z,51.77
2022-12-09T15:15:03.619Z,48.07
2022-12-09T15:17:36.876Z,49.50
2022-12-09T15:20:05.899Z,52.43
2022-12-09T15:22:34.083Z,50.07
2022-12-09T15:25:03.059Z,52.17
2022-12-09T15:27:31.499Z,51.87
2022-12-09T15:30:00.700Z,51.10
2022-12-09T15:32:31.074Z,50.43
2022-12-09T15:35:16.512Z,51.07
2022-12-09T15:37:45.455Z,49.30
2022-12-09T15:40:18.179Z,49.47
2022-12-09T15:42:49.055Z,50.77
2022-12-09T15:45:21.887Z,48.37
2022-12-09T15:47:54.583Z,47.87
2022-12-09T15:50:26.343Z,51.00
2022-12-09T15:52:56.867Z,50.37
2022-12-09T15:55:31.580Z,50.00
2022-12-09T15:58:01.626Z,51.50
2022-12-09T16:00:30.751Z,49.37
2022-12-09T16:02:58.572Z,53.00
2022-12-09T16:05:27.223Z,48.50
2022-12-09T16:07:57.826Z,51.20
2022-12-09T16:10:27.623Z,51.47
2022-12-09T16:13:09.496Z,52.87
2022-12-09T16:15:53.533Z,50.17
2022-12-09T16:18:24.460Z,50.50
2022-12-09T16:21:03.195Z,51.00
2022-12-09T16:23:30.858Z,50.90
2022-12-09T16:26:07.367Z,51.40
2022-12-09T16:28:35.780Z,49.40
2022-12-09T16:31:17.582Z,51.00
2022-12-09T16:33:49.582Z,50.27
2022-12-09T16:36:20.286Z,52.40
2022-12-09T16:39:35.531Z,50.60
2022-12-09T16:42:03.420Z,48.77
2022-12-09T16:44:36.079Z,48.93
2022-12-09T16:47:11.794Z,47.30
2022-12-09T16:49:40.446Z,48.70
2022-12-09T16:52:12.320Z,48.93
2022-12-09T16:54:40.042Z,47.90
2022-12-09T16:57:07.630Z,46.83
2022-12-09T16:59:38.014Z,48.53
2022-12-09T17:02:15.952Z,47.93
2022-12-09T17:04:43.684Z,48.60
2022-12-09T17:07:11.279Z,49.23
2022-12-09T17:09:38.896Z,51.10
2022-12-09T17:12:06.979Z,49.70
2022-12-09T17:14:34.566Z,47.80
2022-12-09T17:17:02.736Z,49.23
2022-12-09T17:19:32.123Z,47.30
2022-12-09T17:21:59.828Z,51.40
2022-12-09T17:24:27.503Z,49.23
2022-12-09T17:26:55.108Z,49.10
2022-12-09T17:29:22.751Z,44.77
2022-12-09T17:31:51.854Z,50.57
2022-12-09T17:34:19.585Z,51.53
2022-12-09T17:36:48.774Z,49.83
2022-12-09T17:39:16.428Z,50.43
2022-12-09T17:41:44.257Z,47.80
2022-12-09T17:44:11.847Z,48.03
2022-12-09T17:46:39.463Z,50.03
2022-12-09T17:49:07.131Z,49.60
2022-12-09T17:51:36.557Z,49.30
2022-12-09T17:54:06.199Z,49.77
2022-12-09T17:56:34.304Z,47.70
2022-12-09T17:59:07.168Z,49.70
2022-12-09T18:01:36.404Z,48.53
2022-12-09T18:04:09.540Z,45.73
2022-12-09T18:06:40.577Z,48.10
2022-12-09T18:09:11.585Z,48.17
2022-12-09T18:11:39.709Z,47.67
2022-12-09T18:14:07.967Z,47.60
2022-12-09T18:16:35.652Z,47.20
2022-12-09T18:19:04.315Z,45.83
2022-12-09T18:21:31.927Z,48.27
2022-12-09T18:23:59.527Z,49.17
2022-12-09T18:26:32.000Z,47.53
2022-12-09T18:29:01.738Z,47.87
2022-12-09T18:31:29.765Z,49.00
2022-12-09T18:33:57.506Z,47.10
2022-12-09T18:36:27.006Z,48.40
2022-12-09T18:38:54.903Z,49.97
2022-12-09T18:41:25.218Z,51.70
2022-12-09T18:43:55.447Z,50.73
2022-12-09T18:46:26.229Z,48.93
2022-12-09T18:48:58.347Z,50.47
2022-12-09T18:51:26.299Z,46.30
2022-12-09T18:53:53.954Z,47.53
2022-12-09T18:56:21.714Z,49.90
2022-12-09T18:59:05.851Z,46.87
2022-12-09T19:01:40.406Z,49.30
2022-12-09T19:04:11.429Z,45.50
2022-12-09T19:06:41.311Z,46.30
2022-12-09T19:09:10.750Z,44.43
2022-12-09T19:11:40.092Z,46.90
2022-12-09T19:14:09.323Z,47.10
2022-12-09T19:16:38.601Z,46.03
2022-12-09T19:19:09.940Z,49.27
2022-12-09T19:21:39.279Z,45.27
2022-12-09T19:24:08.324Z,47.10
2022-12-09T19:26:37.439Z,50.30
2022-12-09T19:29:07.615Z,46.20
2022-12-09T19:31:39.153Z,48.50
2022-12-09T19:34:09.196Z,47.17
2022-12-09T19:36:37.404Z,48.13
2022-12-09T19:39:08.257Z,49.93
2022-12-09T19:41:38.588Z,49.63
2022-12-09T19:44:07.018Z,49.20
2022-12-09T19:46:38.553Z,48.87
2022-12-09T19:49:08.168Z,48.93
2022-12-09T19:51:35.801Z,47.87
2022-12-09T19:54:03.537Z,50.00
2022-12-09T19:56:31.467Z,48.17
2022-12-09T19:59:00.456Z,45.87
2022-12-09T20:01:29.934Z,49.17
2022-12-09T20:04:08.903Z,46.43
2022-12-09T20:06:49.001Z,46.43
2022-12-09T20:09:24.112Z,47.00
2022-12-09T20:11:52.702Z,47.03
2022-12-09T20:14:20.303Z,46.33
2022-12-09T20:16:47.906Z,44.33
2022-12-09T20:19:15.540Z,45.93
2022-12-09T20:21:43.190Z,47.27
2022-12-09T20:24:12.137Z,46.43
2022-12-09T20:26:39.763Z,46.23
2022-12-09T20:29:09.128Z,46.63
2022-12-09T20:31:38.686Z,47.97
2022-12-09T20:34:08.396Z,47.23
2022-12-09T20:36:38.295Z,45.80
2022-12-09T20:39:12.290Z,47.63
2022-12-09T20:41:42.383Z,48.47
2022-12-09T20:44:11.097Z,48.03
2022-12-09T20:46:39.982Z,46.27
2022-12-09T20:49:07.712Z,50.20
2022-12-09T20:51:37.300Z,50.00
2022-12-09T20:54:06.098Z,50.50
2022-12-09T20:56:34.478Z,48.90
2022-12-09T20:59:04.686Z,49.50
2022-12-09T21:01:34.902Z,51.07
2022-12-09T21:04:05.787Z,49.43
2022-12-09T21:06:35.298Z,49.03
2022-12-09T21:09:05.014Z,48.40
2022-12-09T21:11:33.422Z,51.60
2022-12-09T21:14:04.723Z,49.67
2022-12-09T21:16:33.813Z,50.07
2022-12-09T21:19:05.638Z,52.33
2022-12-09T21:21:35.003Z,52.47
2022-12-09T21:24:03.476Z,50.63
2022-12-09T21:26:31.407Z,52.30
2022-12-09T21:29:00.532Z,51.87
2022-12-09T21:31:32.639Z,50.23
2022-12-09T21:34:03.438Z,51.23
2022-12-09T21:36:33.488Z,52.47
2022-12-09T21:39:01.921Z,52.23
2022-12-09T21:41:32.427Z,51.00
2022-12-09T21:44:00.074Z,52.43
2022-12-09T21:46:30.750Z,52.23
2022-12-09T21:49:03.588Z,50.00
2022-12-09T21:51:32.526Z,50.63
2022-12-09T21:54:00.286Z,49.27
2022-12-09T21:56:30.257Z,51.67
2022-12-09T21:58:59.612Z,50.33
2022-12-09T22:01:30.994Z,51.80
2022-12-09T22:04:00.749Z,52.30
2022-12-09T22:06:29.287Z,52.60
2022-12-09T22:08:58.996Z,49.73
2022-12-09T22:11:28.755Z,51.60
2022-12-09T22:13:58.035Z,50.97
2022-12-09T22:16:31.899Z,54.20
2022-12-09T22:19:01.171Z,52.10
2022-12-09T22:21:31.133Z,53.10
2022-12-09T22:24:01.283Z,51.90
2022-12-09T22:26:29.082Z,50.30
2022-12-09T22:28:57.135Z,45.97
2022-12-09T22:31:26.785Z,44.60
2022-12-09T22:33:59.759Z,48.30
2022-12-09T22:36:28.414Z,46.60
2022-12-09T22:38:56.485Z,47.93
2022-12-09T22:41:25.666Z,46.50
2022-12-09T22:43:55.179Z,47.80
2022-12-09T22:46:25.234Z,49.47
2022-12-09T22:48:53.191Z,47.90
2022-12-09T22:51:24.251Z,47.33
2022-12-09T22:53:54.016Z,48.50
2022-12-09T22:56:22.585Z,49.20
2022-12-09T22:58:50.214Z,47.53
2022-12-09T23:01:20.167Z,48.07
2022-12-09T23:03:48.159Z,48.50
2022-12-09T23:06:16.330Z,49.47
2022-12-09T23:08:46.628Z,46.77
2022-12-09T23:11:16.454Z,49.53
2022-12-09T23:13:44.678Z,48.13
2022-12-09T23:16:14.471Z,46.27
2022-12-09T23:18:42.918Z,47.33
2022-12-09T23:21:12.725Z,47.73
2022-12-09T23:23:41.196Z,47.03
2022-12-09T23:26:12.674Z,48.50
2022-12-09T23:28:42.617Z,47.10
2022-12-09T23:31:11.972Z,46.87
2022-12-09T23:33:41.432Z,47.37
2022-12-09T23:36:11.195Z,43.00
2022-12-09T23:38:39.221Z,46.33
2022-12-09T23:41:07.635Z,45.10
2022-12-09T23:43:38.026Z,45.00
2022-12-09T23:46:14.556Z,44.30
2022-12-09T23:48:43.390Z,45.40
2022-12-09T23:51:12.532Z,47.07
2022-12-09T23:53:40.885Z,47.90
2022-12-09T23:56:11.188Z,46.53
2022-12-09T23:58:40.246Z,43.63
